This is the latest recevied weather packets stored in our database for station/object OK2ZAW-21. If no packets are shown the sender has not sent any weather packets the latest 10 day(s).
| Time | Temp. | Humidity | Pressure | Rain* | Wind** | Luminosity | Snow |
|---|---|---|---|---|---|---|---|
| 1788623244 | 17.78° C | 73% | 1022.4 hPa | - | - | 421 W/m² | - |
| 1788622933 | 18.89° C | 68% | 1022.3 hPa | - | - | 421 W/m² | - |
| 1788622621 | 18.89° C | 67% | 1022.3 hPa | - | - | 421 W/m² | - |
| 1788622310 | 18.89° C | 64% | 1022.4 hPa | - | - | 421 W/m² | - |
| 1788621999 | 18.89° C | 63% | 1022.2 hPa | - | - | 421 W/m² | - |
| 1788621377 | 18.33° C | 65% | 1022.3 hPa | - | - | 422 W/m² | - |
| 1788620444 | 19.44° C | 56% | 1022.1 hPa | - | - | 422 W/m² | - |
| 1788620133 | 18.89° C | 57% | 1022 hPa | - | - | 422 W/m² | - |
| 1788619821 | 19.44° C | 58% | 1022.2 hPa | - | - | 422 W/m² | - |
| 1788619510 | 19.44° C | 56% | 1022.1 hPa | - | - | 422 W/m² | - |
| 1788619199 | 19.44° C | 58% | 1022.2 hPa | - | - | 422 W/m² | - |
| 1788618888 | 18.33° C | 61% | 1022.1 hPa | - | - | 422 W/m² | - |
| 1788618576 | 18.89° C | 59% | 1022.3 hPa | - | - | 422 W/m² | - |
| 1788618265 | 18.33° C | 64% | 1022.4 hPa | - | - | 422 W/m² | - |
| 1788617954 | 17.78° C | 64% | 1022.5 hPa | - | - | 422 W/m² | - |
| 1788617021 | 18.89° C | 59% | 1022.1 hPa | - | - | 422 W/m² | - |
| 1788616710 | 18.33° C | 62% | 1022.4 hPa | - | - | 422 W/m² | - |
| 1788616399 | 18.33° C | 63% | 1022.3 hPa | - | - | 422 W/m² | - |
| 1788616087 | 18.33° C | 62% | 1022.4 hPa | - | - | 422 W/m² | - |
| 1788615776 | 18.89° C | 60% | 1022.5 hPa | - | - | 423 W/m² | - |
| 1788615465 | 18.33° C | 61% | 1022.4 hPa | - | - | 423 W/m² | - |
| 1788615154 | 19.44° C | 60% | 1022.4 hPa | - | - | 423 W/m² | - |
| 1788614843 | 18.89° C | 65% | 1022.6 hPa | - | - | 423 W/m² | - |
| 1788614531 | 18.33° C | 65% | 1022.6 hPa | - | - | 423 W/m² | - |
| 1788614220 | 18.33° C | 64% | 1021.9 hPa | - | - | 423 W/m² | - |
* Rain since midnight (hover to see other rain measurements)
** Current wind speed in m/s (hover to see current wind gust speed)